Time;durP1;ratioP1;P1;durP2;ratioP2;P2;SDS_P1;SDS_P2;PMS_P1;PMS_P2;Temp;Humidity;BMP_temperature;BMP_pressure;BME280_temperature;BME280_humidity;BME280_pressure;Samples;Min_cycle;Max_cycle;Signal;HPM_P1;HPM_P2
2021/08/28 00:02:23;;;;;;;15.48;3.75;;;19.40;88.90;;;;;;5007690;28;20100;-80
2021/08/28 00:04:49;;;;;;;11.15;3.30;;;19.50;88.80;;;;;;4994258;28;20367;-80
2021/08/28 00:07:15;;;;;;;8.57;2.70;;;19.40;88.70;;;;;;5008788;28;20037;-80
2021/08/28 00:09:40;;;;;;;11.73;3.25;;;19.50;88.80;;;;;;4994166;28;20092;-80
2021/08/28 00:12:06;;;;;;;8.20;2.80;;;19.40;88.90;;;;;;4993822;28;20034;-81
2021/08/28 00:14:32;;;;;;;9.52;2.67;;;19.40;88.90;;;;;;5005228;28;20038;-81
2021/08/28 00:16:58;;;;;;;10.63;2.80;;;19.50;88.60;;;;;;5005953;28;20072;-80
2021/08/28 00:19:24;;;;;;;7.32;2.85;;;19.40;88.10;;;;;;5007816;28;20438;-81
2021/08/28 00:21:50;;;;;;;10.25;3.22;;;19.40;88.10;;;;;;4993870;28;20027;-80
2021/08/28 00:24:15;;;;;;;9.27;2.88;;;19.40;88.30;;;;;;5006938;28;20175;-80
2021/08/28 00:26:42;;;;;;;9.02;3.15;;;19.40;88.60;;;;;;5007997;28;20133;-81
2021/08/28 00:29:07;;;;;;;8.27;2.65;;;19.40;88.80;;;;;;5004057;28;20129;-80
2021/08/28 00:31:33;;;;;;;5.82;2.60;;;19.40;89.10;;;;;;5007875;28;20064;-81
2021/08/28 00:33:59;;;;;;;23.90;3.33;;;19.30;89.40;;;;;;5026537;28;20026;-80
2021/08/28 00:36:25;;;;;;;9.35;2.70;;;19.40;89.20;;;;;;5009416;28;20041;-80
2021/08/28 00:38:51;;;;;;;7.18;3.25;;;19.30;89.20;;;;;;5013308;28;20037;-80
2021/08/28 00:41:16;;;;;;;7.78;2.85;;;19.30;89.30;;;;;;5024166;28;20041;-81
2021/08/28 00:43:43;;;;;;;6.45;2.75;;;19.30;89.20;;;;;;5008872;28;20061;-81
2021/08/28 00:46:09;;;;;;;11.75;3.20;;;19.30;89.00;;;;;;5010611;28;20058;-80
2021/08/28 00:48:35;;;;;;;8.85;3.10;;;19.30;88.90;;;;;;5007457;28;20033;-81
2021/08/28 00:51:01;;;;;;;5.35;3.10;;;19.30;88.80;;;;;;5003447;28;20492;-80
2021/08/28 00:53:27;;;;;;;10.02;3.70;;;19.30;88.70;;;;;;5010354;28;20062;-81
2021/08/28 00:55:53;;;;;;;13.55;3.15;;;19.30;88.70;;;;;;5014651;28;20049;-80
2021/08/28 00:58:21;;;;;;;10.60;3.50;;;19.30;88.80;;;;;;5013702;28;20099;-80
2021/08/28 01:00:52;;;;;;;8.07;3.08;;;19.30;88.90;;;;;;5003707;28;20113;-81
2021/08/28 01:03:22;;;;;;;11.18;3.00;;;19.30;89.00;;;;;;5003956;28;20382;-80
2021/08/28 01:06:12;;;;;;;15.57;3.92;;;19.30;88.90;;;;;;5004003;28;20038;-80
2021/08/28 01:09:15;;;;;;;15.35;2.80;;;19.30;88.70;;;;;;5005538;28;20041;-80
2021/08/28 01:12:18;;;;;;;11.35;2.70;;;19.30;88.50;;;;;;5011434;28;20057;-80
2021/08/28 01:14:57;;;;;;;6.00;2.30;;;19.20;88.30;;;;;;5027023;28;20080;-79
2021/08/28 01:17:26;;;;;;;11.73;2.67;;;19.20;88.30;;;;;;5015311;28;20062;-80
2021/08/28 01:20:19;;;;;;;9.15;2.50;;;19.20;89.00;;;;;;5013792;28;20366;-80
2021/08/28 01:23:06;;;;;;;4.55;2.53;;;19.20;88.40;;;;;;5004794;28;20116;-80
2021/08/28 01:26:00;;;;;;;7.13;3.20;;;19.20;88.30;;;;;;5008749;28;20081;-81
2021/08/28 01:28:58;;;;;;;10.60;2.67;;;19.20;88.40;;;;;;5009238;28;20064;-80
2021/08/28 01:31:25;;;;;;;6.28;2.33;;;19.20;88.50;;;;;;5003011;28;20037;-80
2021/08/28 01:33:53;;;;;;;7.85;2.63;;;19.20;88.60;;;;;;5030209;28;20125;-80
2021/08/28 01:36:22;;;;;;;5.03;2.13;;;19.20;88.70;;;;;;5028091;28;20029;-80
2021/08/28 01:38:58;;;;;;;5.25;2.20;;;19.20;88.80;;;;;;5013203;28;20034;-81
2021/08/28 01:41:26;;;;;;;8.80;2.67;;;19.20;88.70;;;;;;5027609;28;20045;-80
2021/08/28 01:43:55;;;;;;;5.35;2.25;;;19.10;88.70;;;;;;5001257;28;20041;-80
2021/08/28 01:46:22;;;;;;;7.45;2.40;;;19.20;88.70;;;;;;5010549;28;20057;-80
2021/08/28 01:48:52;;;;;;;10.55;2.70;;;19.10;88.80;;;;;;5012684;28;20022;-80
2021/08/28 01:51:22;;;;;;;11.68;2.97;;;19.10;89.00;;;;;;4998971;28;20041;-81
2021/08/28 01:53:48;;;;;;;12.18;3.47;;;19.10;89.10;;;;;;5013530;28;20057;-80
2021/08/28 01:56:15;;;;;;;9.52;2.53;;;19.10;89.20;;;;;;5013279;28;20065;-81
2021/08/28 01:58:41;;;;;;;11.43;2.67;;;19.10;89.20;;;;;;5009741;28;20074;-81
2021/08/28 02:01:28;;;;;;;16.20;2.95;;;19.10;89.20;;;;;;5007161;28;20620;-81
2021/08/28 02:03:55;;;;;;;8.88;2.92;;;19.10;89.00;;;;;;5004357;28;20037;-81
2021/08/28 02:06:46;;;;;;;10.10;3.30;;;19.00;89.00;;;;;;5012782;28;20033;-81
2021/08/28 02:09:24;;;;;;;15.65;3.20;;;19.10;89.20;;;;;;5003345;28;20177;-80
2021/08/28 02:12:15;;;;;;;10.50;3.50;;;19.00;89.20;;;;;;5011128;28;20489;-80
2021/08/28 02:15:15;;;;;;;12.35;3.65;;;19.10;89.20;;;;;;5004228;28;20729;-81
2021/08/28 02:18:16;;;;;;;8.40;3.58;;;19.10;89.20;;;;;;5027368;28;20145;-80
2021/08/28 02:21:06;;;;;;;16.35;3.97;;;19.00;89.10;;;;;;5011445;28;20026;-80
2021/08/28 02:23:39;;;;;;;7.10;3.10;;;19.10;89.10;;;;;;5006347;28;20413;-81
2021/08/28 02:26:29;;;;;;;10.80;3.92;;;19.10;89.30;;;;;;4997258;28;20050;-81
2021/08/28 02:29:00;;;;;;;13.18;4.75;;;19.10;89.20;;;;;;5023177;28;20075;-81
2021/08/28 02:31:31;;;;;;;8.18;3.28;;;19.10;89.20;;;;;;5014671;28;20025;-80
2021/08/28 02:34:01;;;;;;;10.63;3.83;;;19.00;89.10;;;;;;5028590;28;20116;-81
2021/08/28 02:36:28;;;;;;;15.20;3.33;;;19.00;89.20;;;;;;5029046;28;20030;-80
2021/08/28 02:38:54;;;;;;;16.65;3.83;;;19.00;89.20;;;;;;5011401;28;20125;-80
2021/08/28 02:41:22;;;;;;;12.35;3.92;;;19.00;89.20;;;;;;5027316;28;20048;-81
2021/08/28 02:43:50;;;;;;;6.13;3.00;;;19.00;89.30;;;;;;5003690;28;20064;-80
2021/08/28 02:46:18;;;;;;;14.93;3.92;;;19.00;89.30;;;;;;5023120;28;21531;-80
2021/08/28 02:48:46;;;;;;;16.00;3.80;;;19.10;89.30;;;;;;5020634;28;20026;-82
2021/08/28 02:51:12;;;;;;;15.57;4.57;;;19.10;89.30;;;;;;5027980;28;20026;-81
2021/08/28 02:53:47;;;;;;;9.98;3.63;;;19.10;89.30;;;;;;5001560;28;20048;-81
2021/08/28 02:56:19;;;;;;;9.85;3.00;;;19.10;89.40;;;;;;5027243;28;20033;-81
2021/08/28 02:58:46;;;;;;;13.00;4.25;;;19.10;89.10;;;;;;5013372;28;20469;-81
2021/08/28 03:01:12;;;;;;;11.82;4.30;;;19.10;89.40;;;;;;5013456;28;20092;-81
2021/08/28 03:03:39;;;;;;;9.88;4.53;;;19.10;89.70;;;;;;5009648;28;20068;-81
2021/08/28 03:06:07;;;;;;;12.85;4.07;;;19.10;89.90;;;;;;5012432;28;20041;-80
2021/08/28 03:08:39;;;;;;;12.25;3.70;;;19.10;89.90;;;;;;5022313;28;20030;-85
2021/08/28 03:11:06;;;;;;;14.55;3.95;;;19.10;90.00;;;;;;5037494;28;20030;-81
2021/08/28 03:13:32;;;;;;;12.35;3.80;;;19.10;90.00;;;;;;5018149;28;20050;-81
2021/08/28 03:15:59;;;;;;;12.15;2.92;;;19.10;90.00;;;;;;5002602;28;20165;-81
2021/08/28 03:18:28;;;;;;;14.23;3.97;;;19.10;90.00;;;;;;5000692;28;20035;-80
2021/08/28 03:20:56;;;;;;;11.52;3.33;;;19.10;90.00;;;;;;4999831;28;20031;-81
2021/08/28 03:23:24;;;;;;;16.10;4.80;;;19.00;89.80;;;;;;5014530;28;20120;-80
2021/08/28 03:25:55;;;;;;;18.75;3.92;;;19.00;90.00;;;;;;5025107;28;20049;-81
2021/08/28 03:28:23;;;;;;;10.95;3.80;;;19.10;90.00;;;;;;5016666;28;20057;-82
2021/08/28 03:30:50;;;;;;;18.88;3.95;;;19.00;90.00;;;;;;5009907;28;20057;-81
2021/08/28 03:33:18;;;;;;;32.35;5.18;;;19.00;90.10;;;;;;5010835;28;20121;-80
2021/08/28 03:35:52;;;;;;;13.75;4.18;;;19.00;90.20;;;;;;5009875;28;20034;-80
2021/08/28 03:38:18;;;;;;;10.13;3.47;;;19.00;90.50;;;;;;5011974;28;20026;-80
2021/08/28 03:40:46;;;;;;;14.68;3.15;;;19.00;90.00;;;;;;5018431;28;20116;-80
2021/08/28 03:43:12;;;;;;;13.30;3.83;;;18.90;90.20;;;;;;5008144;28;20609;-80
2021/08/28 03:45:38;;;;;;;8.73;3.80;;;18.90;90.30;;;;;;5002006;28;20128;-79
2021/08/28 03:48:04;;;;;;;6.90;3.00;;;18.90;90.40;;;;;;4998022;28;20042;-81
2021/08/28 03:50:33;;;;;;;10.50;3.35;;;18.80;90.40;;;;;;4995356;28;20026;-80
2021/08/28 03:53:01;;;;;;;19.25;4.82;;;18.90;90.50;;;;;;5021643;28;20036;-84
2021/08/28 03:55:27;;;;;;;12.93;4.00;;;18.90;90.60;;;;;;4994159;28;20038;-83
2021/08/28 03:57:53;;;;;;;15.27;3.95;;;18.90;90.60;;;;;;4999296;28;20034;-80
2021/08/28 04:00:19;;;;;;;14.13;3.85;;;18.80;90.70;;;;;;4999100;28;20045;-80
2021/08/28 04:02:50;;;;;;;9.18;3.33;;;18.80;90.60;;;;;;5002275;28;20485;-80
2021/08/28 04:05:20;;;;;;;17.85;4.15;;;18.80;90.60;;;;;;5008189;28;20076;-80
2021/08/28 04:07:45;;;;;;;11.18;3.72;;;18.80;90.70;;;;;;5006647;28;20489;-79
2021/08/28 04:10:12;;;;;;;10.23;3.28;;;18.80;90.90;;;;;;5006081;28;20030;-81
2021/08/28 04:12:38;;;;;;;8.75;3.60;;;18.80;90.80;;;;;;5009054;28;20029;-84
2021/08/28 04:15:07;;;;;;;8.23;3.42;;;18.80;90.80;;;;;;5012440;28;20037;-77
2021/08/28 04:17:56;;;;;;;12.48;2.83;;;18.80;90.90;;;;;;4999854;28;20121;-81
2021/08/28 04:20:23;;;;;;;13.13;4.38;;;18.80;90.70;;;;;;5012334;28;20030;-81
2021/08/28 04:22:49;;;;;;;13.15;4.03;;;18.70;90.80;;;;;;5012863;28;20133;-81
2021/08/28 04:25:47;;;;;;;18.10;3.78;;;18.80;90.80;;;;;;4972638;28;20408;-80
2021/08/28 04:28:22;;;;;;;12.65;3.90;;;18.70;90.70;;;;;;5024702;28;20034;-81
2021/08/28 04:30:48;;;;;;;16.80;4.18;;;18.80;90.90;;;;;;5010319;28;20104;-81
2021/08/28 04:33:15;;;;;;;15.02;3.58;;;18.70;91.00;;;;;;5013149;28;20022;-80
2021/08/28 04:35:41;;;;;;;8.27;3.40;;;18.70;90.90;;;;;;5018700;28;20489;-80
2021/08/28 04:38:07;;;;;;;15.85;3.75;;;18.70;90.90;;;;;;5008193;28;20033;-80
2021/08/28 04:40:33;;;;;;;12.75;4.18;;;18.70;90.70;;;;;;5005962;28;20088;-80
2021/08/28 04:42:59;;;;;;;11.43;4.57;;;18.70;90.90;;;;;;5009608;28;20465;-80
2021/08/28 04:45:38;;;;;;;9.88;3.60;;;18.70;91.10;;;;;;5008216;28;20049;-79
2021/08/28 04:48:27;;;;;;;7.60;3.05;;;18.70;91.10;;;;;;5013169;28;20041;-81
2021/08/28 04:50:54;;;;;;;13.43;3.40;;;18.70;91.10;;;;;;5020082;28;20026;-81
2021/08/28 04:53:21;;;;;;;9.60;3.75;;;18.70;91.20;;;;;;5014215;28;20423;-81
2021/08/28 04:55:47;;;;;;;10.55;3.58;;;18.70;91.10;;;;;;5001723;28;20148;-81
2021/08/28 04:58:13;;;;;;;6.05;2.88;;;18.70;91.10;;;;;;5018242;28;20168;-80
2021/08/28 05:00:55;;;;;;;13.80;3.85;;;18.70;91.00;;;;;;5028413;28;20465;-80
2021/08/28 05:03:40;;;;;;;16.67;3.28;;;18.70;91.10;;;;;;4999705;28;20695;-80
2021/08/28 05:06:07;;;;;;;7.82;2.72;;;18.70;91.00;;;;;;5020075;28;20031;-79
2021/08/28 05:08:33;;;;;;;11.55;3.25;;;18.70;90.80;;;;;;5005430;28;20370;-80
2021/08/28 05:11:02;;;;;;;11.32;3.72;;;18.60;90.90;;;;;;5004825;28;20030;-82
2021/08/28 05:13:29;;;;;;;8.77;3.22;;;18.70;90.90;;;;;;5028591;28;20036;-79
2021/08/28 05:15:55;;;;;;;13.00;3.92;;;18.70;90.90;;;;;;5014469;28;20072;-81
2021/08/28 05:18:21;;;;;;;13.88;3.65;;;18.60;90.80;;;;;;5009983;28;20025;-80
2021/08/28 05:20:46;;;;;;;6.82;3.17;;;18.60;90.90;;;;;;5010149;28;20856;-82
2021/08/28 05:23:40;;;;;;;12.77;4.18;;;18.60;91.00;;;;;;5013787;28;20567;-80
2021/08/28 05:26:31;;;;;;;10.40;3.75;;;18.60;91.10;;;;;;5017001;28;20052;-81
2021/08/28 05:28:57;;;;;;;6.78;2.65;;;18.60;91.10;;;;;;5013129;28;20385;-80
2021/08/28 05:31:23;;;;;;;11.13;3.40;;;18.60;91.10;;;;;;5009302;28;20026;-81
2021/08/28 05:33:49;;;;;;;12.43;3.42;;;18.60;91.10;;;;;;5020590;28;20026;-81
2021/08/28 05:36:19;;;;;;;16.23;4.07;;;18.60;91.10;;;;;;5012283;28;20084;-80
2021/08/28 05:39:05;;;;;;;16.20;4.03;;;18.60;91.00;;;;;;5006692;28;20041;-81
2021/08/28 05:41:32;;;;;;;12.23;3.88;;;18.70;91.00;;;;;;5012633;28;20033;-81
2021/08/28 05:43:58;;;;;;;12.40;3.97;;;18.60;90.80;;;;;;5026348;28;20034;-81
2021/08/28 05:46:34;;;;;;;8.27;3.42;;;18.70;90.80;;;;;;5011203;28;20056;-80
2021/08/28 05:49:10;;;;;;;16.38;3.55;;;18.60;90.60;;;;;;5018701;28;20032;-82
2021/08/28 05:51:48;;;;;;;15.60;3.75;;;18.60;90.60;;;;;;5013161;28;20028;-80
2021/08/28 05:54:13;;;;;;;15.25;3.80;;;18.60;90.90;;;;;;5013028;28;20121;-81
2021/08/28 05:56:39;;;;;;;9.70;3.88;;;18.60;90.60;;;;;;5008520;28;20097;-81
2021/08/28 05:59:05;;;;;;;6.25;3.30;;;18.60;90.60;;;;;;5013514;28;20469;-81
2021/08/28 06:01:31;;;;;;;6.57;3.05;;;18.60;90.50;;;;;;5004421;28;20026;-80
2021/08/28 06:03:57;;;;;;;6.43;3.13;;;18.60;90.40;;;;;;5008261;28;20109;-81
2021/08/28 06:06:42;;;;;;;9.43;3.75;;;18.60;90.20;;;;;;5005837;28;20041;-81
2021/08/28 06:09:30;;;;;;;10.52;3.97;;;18.60;90.10;;;;;;5013726;28;20049;-81
2021/08/28 06:12:35;;;;;;;6.70;3.08;;;18.60;90.20;;;;;;4996781;28;20548;-86
2021/08/28 06:15:19;;;;;;;11.35;3.33;;;18.60;90.00;;;;;;5013581;28;20156;-88
2021/08/28 06:17:53;;;;;;;;;;;18.60;89.50;;;;;;5016175;28;20125;-89
2021/08/28 06:20:19;;;;;;;6.68;3.00;;;18.60;89.90;;;;;;5016964;28;20415;-90
2021/08/28 06:22:44;;;;;;;6.65;3.05;;;18.60;89.10;;;;;;5008495;28;20026;-89
2021/08/28 06:25:11;;;;;;;10.10;3.30;;;18.60;89.20;;;;;;5010836;28;20124;-89
2021/08/28 06:27:37;;;;;;;5.97;3.75;;;18.60;89.00;;;;;;5004498;28;20495;-88
2021/08/28 06:30:09;;;;;;;7.00;3.58;;;18.60;89.10;;;;;;5005788;28;20030;-88
2021/08/28 06:32:35;;;;;;;11.88;3.45;;;18.60;89.00;;;;;;5002749;28;20026;-85
2021/08/28 06:35:00;;;;;;;6.63;3.05;;;18.70;89.00;;;;;;5005106;28;20032;-84
2021/08/28 06:37:35;;;;;;;10.35;3.22;;;18.70;89.00;;;;;;5036815;28;20117;-87
2021/08/28 06:40:33;;;;;;;8.50;3.75;;;18.60;89.00;;;;;;4993666;28;20499;-84
2021/08/28 06:43:30;;;;;;;6.07;2.78;;;18.60;89.20;;;;;;5001302;28;20125;-85
2021/08/28 06:46:31;;;;;;;10.35;2.67;;;18.60;89.50;;;;;;4987275;28;20049;-91
2021/08/28 06:49:16;;;;;;;9.00;3.70;;;18.70;89.60;;;;;;5004084;28;20045;-85
2021/08/28 06:52:20;;;;;;;;;;;18.70;90.00;;;;;;4951467;29;20533;-87
2021/08/28 06:55:21;;;;;;;12.07;2.67;;;18.60;89.80;;;;;;4946688;29;19973;-90
2021/08/28 06:57:49;;;;;;;8.02;3.20;;;18.60;89.90;;;;;;4990083;28;20041;-81
2021/08/28 07:00:44;;;;;;;8.75;2.78;;;18.60;90.00;;;;;;4998485;28;20423;-81
2021/08/28 07:03:28;;;;;;;8.93;2.38;;;18.60;90.10;;;;;;5010419;28;20041;-79
2021/08/28 07:05:54;;;;;;;10.02;3.35;;;18.60;90.10;;;;;;4998320;28;20034;-80
2021/08/28 07:08:23;;;;;;;10.95;3.30;;;18.60;90.20;;;;;;5008419;28;20026;-79
2021/08/28 07:10:49;;;;;;;14.52;3.63;;;18.60;90.30;;;;;;5017500;28;20092;-81
2021/08/28 07:13:15;;;;;;;11.57;2.63;;;18.60;90.40;;;;;;4998168;28;20022;-80
2021/08/28 07:15:41;;;;;;;9.82;3.45;;;18.60;90.30;;;;;;5001014;28;20022;-79
2021/08/28 07:18:13;;;;;;;11.88;4.15;;;18.60;90.40;;;;;;5025802;28;20030;-78
2021/08/28 07:20:39;;;;;;;9.40;2.83;;;18.60;90.40;;;;;;5025689;28;20072;-78
2021/08/28 07:23:06;;;;;;;9.43;2.72;;;18.70;90.40;;;;;;5011495;28;20022;-76
2021/08/28 07:26:04;;;;;;;7.82;2.50;;;18.70;90.50;;;;;;4988135;28;20072;-82
2021/08/28 07:28:31;;;;;;;7.60;2.58;;;18.70;90.40;;;;;;5009198;28;20037;-79
2021/08/28 07:31:02;;;;;;;11.35;2.70;;;18.70;90.40;;;;;;5012383;28;20125;-78
2021/08/28 07:33:29;;;;;;;6.47;2.88;;;18.70;90.50;;;;;;5027676;28;20029;-78
2021/08/28 07:35:55;;;;;;;8.40;2.90;;;18.70;90.60;;;;;;5024787;28;20030;-78
2021/08/28 07:38:20;;;;;;;9.85;3.47;;;18.70;90.70;;;;;;5000564;28;20464;-78
2021/08/28 07:40:47;;;;;;;7.25;3.30;;;18.80;90.80;;;;;;5027926;28;20022;-79
2021/08/28 07:43:13;;;;;;;5.07;2.40;;;18.80;90.60;;;;;;5005601;28;20080;-79
2021/08/28 07:45:45;;;;;;;7.63;2.50;;;18.80;90.60;;;;;;5005345;28;20029;-76
2021/08/28 07:48:16;;;;;;;8.50;2.90;;;18.80;90.60;;;;;;5004152;28;20033;-89
2021/08/28 07:50:42;;;;;;;12.55;3.03;;;18.90;90.60;;;;;;5010202;28;20516;-86
2021/08/28 07:53:08;;;;;;;8.82;2.42;;;18.90;90.60;;;;;;5027033;28;20104;-72
2021/08/28 07:55:39;;;;;;;9.35;2.55;;;18.90;90.60;;;;;;5013301;28;20057;-81
2021/08/28 07:58:04;;;;;;;5.57;2.42;;;18.90;90.40;;;;;;5013957;28;20473;-78
2021/08/28 08:00:32;;;;;;;5.78;2.20;;;19.00;90.40;;;;;;5001312;28;20034;-77
2021/08/28 08:02:58;;;;;;;6.85;1.92;;;19.00;90.20;;;;;;4994424;28;20132;-78
2021/08/28 08:05:50;;;;;;;6.80;2.45;;;19.00;90.10;;;;;;5007800;28;20049;-79
2021/08/28 08:08:38;;;;;;;8.40;2.58;;;19.00;90.00;;;;;;5004924;28;20034;-79
2021/08/28 08:11:38;;;;;;;11.18;2.33;;;19.00;90.00;;;;;;4983988;28;20081;-80
2021/08/28 08:14:23;;;;;;;7.13;2.08;;;19.10;90.10;;;;;;4993852;28;20045;-79
2021/08/28 08:17:07;;;;;;;9.88;2.10;;;19.10;90.00;;;;;;5007429;28;20141;-79
2021/08/28 08:19:55;;;;;;;10.88;2.00;;;19.10;90.00;;;;;;5003959;28;20041;-81
2021/08/28 08:22:43;;;;;;;9.95;2.25;;;19.10;90.10;;;;;;5003858;28;20112;-79
2021/08/28 08:25:27;;;;;;;5.90;2.22;;;19.10;90.20;;;;;;5003686;28;20477;-81
2021/08/28 08:28:11;;;;;;;6.00;1.88;;;19.10;89.80;;;;;;5004013;28;20049;-77
2021/08/28 08:31:06;;;;;;;8.02;1.80;;;19.20;90.10;;;;;;5001667;28;20037;-77
2021/08/28 08:33:31;;;;;;;7.68;2.33;;;19.20;90.00;;;;;;5016603;28;20026;-77
2021/08/28 08:35:58;;;;;;;7.38;2.08;;;19.20;90.00;;;;;;5005496;28;20053;-80
2021/08/28 08:38:25;;;;;;;7.35;2.15;;;19.30;90.10;;;;;;5009871;28;20564;-80
2021/08/28 08:40:51;;;;;;;6.50;2.15;;;19.30;89.60;;;;;;5017769;28;20127;-76
2021/08/28 08:43:17;;;;;;;9.25;2.42;;;19.40;89.00;;;;;;5007779;28;20428;-76
2021/08/28 08:45:45;;;;;;;5.82;1.75;;;19.40;88.90;;;;;;5008719;28;20060;-76
2021/08/28 08:48:12;;;;;;;6.25;1.88;;;19.40;89.10;;;;;;5034385;28;20026;-76
2021/08/28 08:50:38;;;;;;;8.55;2.00;;;19.40;89.00;;;;;;5002204;28;20081;-76
2021/08/28 08:53:05;;;;;;;8.02;2.17;;;19.50;89.00;;;;;;5020546;28;20030;-76
2021/08/28 08:55:37;;;;;;;9.00;1.90;;;19.50;89.20;;;;;;4997483;28;20088;-76
2021/08/28 08:58:03;;;;;;;5.28;1.88;;;19.50;89.60;;;;;;4997943;28;20117;-76
2021/08/28 09:00:29;;;;;;;5.85;1.77;;;19.50;89.00;;;;;;5004657;28;20475;-76
2021/08/28 09:03:14;;;;;;;3.10;1.58;;;19.50;89.00;;;;;;5010260;28;20108;-82
2021/08/28 09:05:42;;;;;;;4.65;1.52;;;19.50;87.60;;;;;;4994933;28;20041;-77
2021/08/28 09:08:08;;;;;;;4.10;2.13;;;19.60;88.30;;;;;;4995149;28;20507;-77
2021/08/28 09:10:34;;;;;;;5.45;1.70;;;19.60;88.50;;;;;;5002175;28;20038;-77
2021/08/28 09:13:16;;;;;;;4.25;2.03;;;19.60;88.30;;;;;;4994528;28;20030;-76
2021/08/28 09:15:50;;;;;;;6.50;1.90;;;19.60;88.10;;;;;;5001650;28;20137;-77
2021/08/28 09:18:17;;;;;;;5.22;2.13;;;19.70;88.00;;;;;;5022325;28;20030;-77
2021/08/28 09:20:43;;;;;;;3.85;1.42;;;19.70;88.20;;;;;;5009217;28;20037;-77
2021/08/28 09:23:09;;;;;;;6.90;2.10;;;19.70;88.00;;;;;;5002170;28;20026;-76
2021/08/28 09:25:38;;;;;;;10.52;1.95;;;19.70;88.10;;;;;;5009825;28;20060;-77
2021/08/28 09:28:05;;;;;;;2.83;1.40;;;19.70;87.80;;;;;;5000505;28;20017;-75
2021/08/28 09:30:44;;;;;;;4.97;1.67;;;19.80;87.60;;;;;;4998738;28;20030;-80
2021/08/28 09:33:15;;;;;;;6.40;1.88;;;19.70;87.80;;;;;;5012428;28;20092;-76
2021/08/28 09:35:46;;;;;;;4.57;1.50;;;19.80;87.50;;;;;;5013604;28;20044;-77
2021/08/28 09:38:13;;;;;;;5.00;2.03;;;19.80;88.10;;;;;;4995850;28;20049;-76
2021/08/28 09:40:45;;;;;;;8.00;2.10;;;19.80;87.70;;;;;;4994928;28;20034;-79
2021/08/28 09:43:16;;;;;;;4.57;1.55;;;19.80;87.40;;;;;;4996420;28;20034;-85
2021/08/28 09:45:43;;;;;;;4.55;1.60;;;19.80;87.60;;;;;;5005666;28;20046;-77
2021/08/28 09:48:10;;;;;;;8.25;1.77;;;19.80;87.60;;;;;;5011085;28;20157;-78
2021/08/28 09:50:41;;;;;;;5.22;1.63;;;19.80;87.60;;;;;;5013398;28;20038;-76
2021/08/28 09:53:09;;;;;;;4.97;1.33;;;19.80;87.60;;;;;;5012375;28;20113;-77
2021/08/28 09:55:37;;;;;;;6.75;1.50;;;19.80;87.90;;;;;;4995216;28;20065;-81
2021/08/28 09:58:03;;;;;;;9.77;1.85;;;19.80;87.30;;;;;;4995687;28;20038;-81
2021/08/28 10:00:31;;;;;;;3.38;1.25;;;19.80;87.30;;;;;;5013099;28;20032;-81
2021/08/28 10:03:05;;;;;;;2.53;1.25;;;19.80;87.70;;;;;;5003652;28;20477;-85
2021/08/28 10:05:32;;;;;;;10.77;1.77;;;19.80;87.40;;;;;;5007486;28;20076;-79
2021/08/28 10:08:02;;;;;;;3.65;1.80;;;19.80;87.70;;;;;;5012758;28;20033;-78
2021/08/28 10:10:30;;;;;;;5.35;1.60;;;19.80;88.10;;;;;;5001529;28;20027;-75
2021/08/28 10:12:57;;;;;;;5.18;1.60;;;19.90;87.50;;;;;;5005895;28;20465;-80
2021/08/28 10:15:24;;;;;;;6.60;1.52;;;19.90;87.30;;;;;;5011406;28;20084;-77
2021/08/28 10:17:50;;;;;;;2.55;1.25;;;19.90;87.70;;;;;;5012396;28;20034;-77
2021/08/28 10:20:18;;;;;;;2.58;0.82;;;19.90;87.60;;;;;;5011220;28;21408;-78
2021/08/28 10:22:47;;;;;;;6.22;2.22;;;19.90;87.90;;;;;;5005209;28;20049;-77
2021/08/28 10:25:14;;;;;;;2.90;1.20;;;19.90;87.60;;;;;;4992981;28;20058;-76
2021/08/28 10:27:41;;;;;;;2.50;1.05;;;20.00;87.80;;;;;;5012640;28;20030;-77
2021/08/28 10:30:11;;;;;;;5.68;1.30;;;20.00;87.60;;;;;;5012870;28;20033;-78
2021/08/28 10:32:37;;;;;;;6.43;1.27;;;20.00;86.70;;;;;;5007660;28;20604;-78
2021/08/28 10:35:04;;;;;;;6.55;1.73;;;20.00;86.80;;;;;;5011688;28;20064;-77
2021/08/28 10:37:29;;;;;;;3.95;1.48;;;20.00;87.20;;;;;;5011628;28;20057;-78
2021/08/28 10:39:56;;;;;;;3.22;2.10;;;20.00;87.00;;;;;;5000160;28;20470;-77
2021/08/28 10:42:22;;;;;;;2.63;1.40;;;20.00;86.70;;;;;;5012339;28;20037;-76
2021/08/28 10:44:50;;;;;;;4.65;1.65;;;20.10;86.50;;;;;;5008338;28;20101;-76
2021/08/28 10:47:26;;;;;;;6.70;2.00;;;20.10;85.30;;;;;;5021341;28;20033;-80
2021/08/28 10:50:09;;;;;;;4.78;1.27;;;20.10;85.30;;;;;;5009835;28;20531;-79
2021/08/28 10:52:37;;;;;;;4.50;1.67;;;20.10;86.00;;;;;;5000262;28;20129;-79
2021/08/28 10:55:12;;;;;;;5.03;1.60;;;20.10;85.80;;;;;;5010088;28;20033;-77
2021/08/28 10:57:38;;;;;;;3.78;0.98;;;20.20;85.60;;;;;;5006581;28;20029;-77
2021/08/28 11:00:16;;;;;;;7.88;1.45;;;20.20;86.50;;;;;;5011565;28;20052;-77
2021/08/28 11:02:58;;;;;;;5.18;1.52;;;20.20;85.70;;;;;;5010184;28;20026;-77
2021/08/28 11:05:31;;;;;;;3.83;1.23;;;20.20;86.10;;;;;;5010069;28;20034;-77
2021/08/28 11:08:17;;;;;;;4.22;1.50;;;20.20;85.90;;;;;;5011041;28;20042;-77
2021/08/28 11:11:03;;;;;;;4.43;1.50;;;20.30;86.10;;;;;;5005220;28;20545;-78
2021/08/28 11:13:54;;;;;;;3.90;1.60;;;20.30;85.40;;;;;;5010367;28;20026;-78
2021/08/28 11:16:45;;;;;;;3.72;1.15;;;20.40;85.70;;;;;;5012726;28;20426;-81
2021/08/28 11:19:32;;;;;;;5.65;1.60;;;20.40;85.40;;;;;;5011500;28;20633;-80
2021/08/28 11:21:58;;;;;;;2.72;1.23;;;20.40;85.00;;;;;;5010405;28;20469;-80
2021/08/28 11:24:26;;;;;;;2.40;1.20;;;20.40;84.90;;;;;;5011115;28;20481;-78
2021/08/28 11:26:57;;;;;;;4.97;1.42;;;20.40;84.10;;;;;;5012202;28;20080;-79
2021/08/28 11:29:28;;;;;;;6.47;1.50;;;20.40;84.80;;;;;;5010923;28;20442;-80
2021/08/28 11:32:20;;;;;;;5.22;1.50;;;20.50;84.80;;;;;;5011363;28;20377;-76
2021/08/28 11:34:51;;;;;;;3.85;1.23;;;20.50;85.10;;;;;;5010218;28;20033;-79
2021/08/28 11:37:29;;;;;;;6.22;1.25;;;20.60;85.00;;;;;;5003388;28;20134;-81
2021/08/28 11:39:59;;;;;;;8.00;1.42;;;20.60;84.20;;;;;;4996303;28;20041;-79
2021/08/28 11:42:29;;;;;;;4.18;1.33;;;20.60;84.50;;;;;;5011291;28;20029;-82
2021/08/28 11:44:56;;;;;;;5.32;1.48;;;20.70;83.80;;;;;;5011910;28;20038;-78
2021/08/28 11:47:23;;;;;;;2.50;1.13;;;20.70;83.10;;;;;;5012047;28;20117;-88
2021/08/28 11:49:53;;;;;;;3.25;1.77;;;20.70;83.10;;;;;;5013377;28;20473;-88
2021/08/28 11:52:19;;;;;;;2.47;1.30;;;20.70;82.70;;;;;;5001462;28;20088;-83
2021/08/28 11:54:46;;;;;;;3.80;1.02;;;20.70;82.60;;;;;;5001547;28;20034;-80
2021/08/28 11:57:12;;;;;;;3.30;1.48;;;20.70;82.60;;;;;;5001545;28;20102;-80
2021/08/28 11:59:40;;;;;;;1.95;1.08;;;20.80;83.40;;;;;;5006687;28;20030;-81
2021/08/28 12:02:07;;;;;;;2.60;0.90;;;20.70;83.10;;;;;;5009124;28;20037;-79
2021/08/28 12:04:37;;;;;;;3.72;1.15;;;20.80;83.60;;;;;;5000849;28;20082;-83
2021/08/28 12:07:04;;;;;;;2.95;1.50;;;20.80;82.40;;;;;;5006110;28;20037;-76
2021/08/28 12:09:31;;;;;;;3.70;1.20;;;20.80;82.50;;;;;;5007985;28;20451;-88
2021/08/28 12:11:57;;;;;;;4.80;1.45;;;20.80;82.20;;;;;;4996440;28;20113;-75
2021/08/28 12:14:29;;;;;;;6.43;1.45;;;20.80;81.90;;;;;;5002645;28;20065;-77
2021/08/28 12:16:56;;;;;;;4.47;1.30;;;20.80;82.20;;;;;;5006989;28;20034;-78
2021/08/28 12:19:29;;;;;;;6.20;2.50;;;20.90;83.10;;;;;;5007685;28;20109;-77
2021/08/28 12:22:05;;;;;;;5.55;1.45;;;20.90;82.40;;;;;;5001956;28;20022;-73
2021/08/28 12:24:37;;;;;;;3.15;1.50;;;21.00;82.80;;;;;;4997843;28;20485;-78
2021/08/28 12:27:08;;;;;;;4.45;1.30;;;21.00;82.00;;;;;;5000875;28;20041;-81
2021/08/28 12:29:46;;;;;;;3.53;1.15;;;21.00;82.30;;;;;;4996696;28;20034;-80
2021/08/28 12:32:12;;;;;;;6.05;1.35;;;21.00;82.20;;;;;;4994344;28;20452;-82
2021/08/28 12:34:40;;;;;;;3.17;1.23;;;21.00;82.60;;;;;;4996173;28;20575;-79
2021/08/28 12:37:14;;;;;;;3.63;1.30;;;21.10;82.20;;;;;;5001046;28;20493;-83
2021/08/28 12:39:42;;;;;;;2.05;1.00;;;21.10;82.20;;;;;;4999479;28;20045;-81
2021/08/28 12:42:12;;;;;;;4.55;1.35;;;21.10;82.40;;;;;;4999744;28;20069;-85
2021/08/28 12:44:39;;;;;;;2.35;1.20;;;21.10;82.00;;;;;;4996755;28;20050;-77
2021/08/28 12:47:09;;;;;;;3.42;1.15;;;21.10;81.90;;;;;;5002952;28;20064;-83
2021/08/28 12:49:35;;;;;;;5.45;1.52;;;21.10;81.40;;;;;;5006558;28;20037;-77
2021/08/28 12:52:13;;;;;;;6.78;1.60;;;21.10;81.90;;;;;;5000287;28;20023;-81
2021/08/28 12:54:49;;;;;;;1.80;1.25;;;21.10;81.20;;;;;;5004935;28;20045;-72
2021/08/28 12:57:18;;;;;;;3.47;1.27;;;21.10;81.40;;;;;;5005657;28;20381;-84
2021/08/28 12:59:46;;;;;;;2.75;1.30;;;21.10;81.30;;;;;;5007043;28;20053;-82
2021/08/28 13:02:24;;;;;;;2.75;1.20;;;21.10;81.20;;;;;;5005562;28;20030;-81
2021/08/28 13:04:51;;;;;;;9.07;1.60;;;21.10;81.00;;;;;;5010910;28;20038;-78
2021/08/28 13:07:33;;;;;;;3.53;1.13;;;21.10;80.70;;;;;;5012230;28;20108;-84
2021/08/28 13:10:05;;;;;;;5.25;1.38;;;21.10;80.50;;;;;;5010984;28;20030;-90